Jackson, Nebraska
Current Conditions -  °F | °C
As of 11:52 PM on Sunday 25 Jan 2015 (Local Time) from KSUX Reporting Station
Scattered Clouds Scattered Clouds  
Wind Chill: 30°   Ceiling: Unl
Heat Index: 30°   Visibility: 10mi
Dew Point: 28°   Wind: 3mph
Humidity: 92%   Direction: 180°S
Pressure: 30.02"   Gusts: NA
Location:  42.45°N, 96.56°W
Report Text: KSUX 260552Z 18003KT 10SM SCT100 M01/M02 A3002 RMK AO2 SLP178 T10111022 10022 21011 400501011 56011
Loading
Personal Weather Stations






























Interactive Weather Map New forecast layout! Learn more

10-Day Weather Forecast

Advertisements
Track Severe Weather on mobile